Bond, Illinois
Current Conditions -  °F | °C
As of 3:53 AM on Thursday 23 Oct 2014 (Local Time) from KLWV Reporting Station
Haze Haze  
Wind Chill: 37°   Ceiling: Unl
Heat Index: 37°   Visibility: 6mi
Dew Point: 36°   Wind: 3mph
Humidity: 96%   Direction: 60°ENE
Pressure: 30.25"   Gusts: NA
Location:  38.7501°N, 87.6141°W
Report Text: KLWV 230853Z AUTO 06003KT 6SM BR CLR 03/02 A3025 RMK AO2 SLP244 T00280022 56004
Loading
Personal Weather Stations






























Interactive Weather Map
Tropical Storm Tracking
New forecast layout! Learn more

10-Day Weather Forecast

Advertisements
Track Severe Weather on mobile